Terminal Aerodrome Forecast
Issued by NWS North Platte, NE

Home | Current Version | Previous Version | Graphics & Text | Print | Product List | Glossary On
Versions: 1 2 3 4 5 6 7 8 9 10 11 12 13 14 15 16 17
000
FTUS43 KLBF 260900 AAB
TAFVTN
TAF AMD
KVTN 260920Z 2609/2706 36011KT P6SM FEW019 BKN035
     FM261200 36008KT P6SM SCT035
     FM261600 35013KT P6SM SKC
     FM270000 03006KT P6SM SKC=

USA.gov is the U.S. government's official web portal to all federal, state and local government web resources and services.